createdAt,value
2023-01-19T00:01:31.881Z,-2.31
2023-01-19T00:06:25.501Z,-2.28
2023-01-19T00:11:22.195Z,-2.39
2023-01-19T00:16:27.739Z,-2.53
2023-01-19T00:18:54.499Z,-2.49
2023-01-19T00:21:22.357Z,-2.47
2023-01-19T00:26:18.932Z,-2.31
2023-01-19T00:31:15.045Z,-2.26
2023-01-19T00:33:41.723Z,-2.29
2023-01-19T00:36:09.185Z,-2.06
2023-01-19T00:38:36.096Z,-1.93
2023-01-19T00:41:02.959Z,-1.87
2023-01-19T00:43:29.704Z,-1.79
2023-01-19T00:48:23.163Z,-1.75
2023-01-19T00:53:16.878Z,-1.98
2023-01-19T00:55:43.605Z,-2.11
2023-01-19T00:58:10.957Z,-2.25
2023-01-19T01:03:05.289Z,-2.44
2023-01-19T01:05:32.249Z,-2.51
2023-01-19T01:07:59.120Z,-2.61
2023-01-19T01:10:28.676Z,-2.68
2023-01-19T01:15:23.552Z,-2.41
2023-01-19T01:17:53.115Z,-2.39
2023-01-19T01:20:27.960Z,-2.33
2023-01-19T01:25:25.150Z,-2.18
2023-01-19T01:27:52.968Z,-2.19
2023-01-19T01:30:20.834Z,-2.21
2023-01-19T01:32:47.613Z,-2.22
2023-01-19T01:35:14.962Z,-2.28
2023-01-19T01:37:44.794Z,-2.41
2023-01-19T01:40:14.217Z,-2.50
2023-01-19T01:42:42.684Z,-2.56
2023-01-19T01:45:28.661Z,-2.60
2023-01-19T01:48:01.729Z,-2.61
2023-01-19T01:50:32.879Z,-2.41
2023-01-19T01:53:07.974Z,-2.30
2023-01-19T01:55:49.379Z,-2.25
2023-01-19T01:58:17.074Z,-2.30
2023-01-19T02:03:29.741Z,-2.15
2023-01-19T02:06:02.095Z,-2.26
2023-01-19T02:08:53.874Z,-2.28
2023-01-19T02:11:41.088Z,-2.33
2023-01-19T02:14:08.300Z,-2.37
2023-01-19T02:16:40.315Z,-2.47
2023-01-19T02:19:12.596Z,-2.57
2023-01-19T02:22:16.871Z,-2.57
2023-01-19T02:27:12.331Z,-2.69
2023-01-19T02:29:42.225Z,-2.73
2023-01-19T02:32:09.452Z,-2.70
2023-01-19T02:34:39.546Z,-2.78
2023-01-19T02:37:13.536Z,-2.84
2023-01-19T02:40:02.045Z,-2.93
2023-01-19T02:42:50.739Z,-3.03
2023-01-19T02:45:21.859Z,-3.09
2023-01-19T02:47:49.925Z,-3.21
2023-01-19T02:50:39.309Z,-3.26
2023-01-19T02:53:45.846Z,-3.29
2023-01-19T02:56:25.074Z,-3.33
2023-01-19T02:59:13.021Z,-3.34
2023-01-19T03:04:35.375Z,-3.42
2023-01-19T03:07:14.379Z,-3.35
2023-01-19T03:09:59.435Z,-3.36
2023-01-19T03:16:00.311Z,-3.20
2023-01-19T03:18:51.558Z,-3.27
2023-01-19T03:21:20.336Z,-3.20
2023-01-19T03:23:50.006Z,-3.17
2023-01-19T03:26:22.959Z,-3.24
2023-01-19T03:28:51.679Z,-3.35
2023-01-19T03:31:24.292Z,-3.30
2023-01-19T03:33:58.443Z,-3.31
2023-01-19T03:36:57.210Z,-3.46
2023-01-19T03:39:26.731Z,-3.45
2023-01-19T03:42:00.361Z,-3.45
2023-01-19T03:44:29.566Z,-3.44
2023-01-19T03:49:26.691Z,-3.47
2023-01-19T03:51:59.056Z,-3.47
2023-01-19T03:54:26.660Z,-3.43
2023-01-19T03:59:21.810Z,-3.49
2023-01-19T04:01:48.749Z,-3.54
2023-01-19T04:04:15.912Z,-3.59
2023-01-19T04:06:43.423Z,-3.53
2023-01-19T04:09:10.422Z,-3.50
2023-01-19T04:14:06.224Z,-3.51
2023-01-19T04:16:33.788Z,-3.41
2023-01-19T04:21:32.872Z,-3.34
2023-01-19T04:23:59.811Z,-3.36
2023-01-19T04:26:26.567Z,-3.36
2023-01-19T04:31:21.094Z,-3.41
2023-01-19T04:33:47.864Z,-3.40
2023-01-19T04:41:08.480Z,-3.45
2023-01-19T04:46:02.320Z,-3.42
2023-01-19T04:48:36.085Z,-3.53
2023-01-19T04:51:03.209Z,-3.66
2023-01-19T04:53:29.973Z,-3.70
2023-01-19T04:55:57.021Z,-3.65
2023-01-19T05:00:51.278Z,-3.75
2023-01-19T05:03:19.335Z,-3.66
2023-01-19T05:05:46.486Z,-3.71
2023-01-19T05:08:13.704Z,-3.74
2023-01-19T05:13:07.390Z,-3.67
2023-01-19T05:15:34.129Z,-3.68
2023-01-19T05:18:00.917Z,-3.69
2023-01-19T05:20:29.171Z,-3.65
2023-01-19T05:25:25.510Z,-3.63
2023-01-19T05:32:49.291Z,-3.67
2023-01-19T05:35:20.227Z,-3.64
2023-01-19T05:37:49.206Z,-3.59
2023-01-19T05:40:16.364Z,-3.49
2023-01-19T05:45:13.953Z,-3.47
2023-01-19T05:50:12.594Z,-3.52
2023-01-19T05:55:07.725Z,-3.40
2023-01-19T05:57:35.110Z,-3.39
2023-01-19T06:00:02.065Z,-3.45
2023-01-19T06:02:30.139Z,-3.48
2023-01-19T06:04:57.279Z,-3.47
2023-01-19T06:07:25.305Z,-3.46
2023-01-19T06:12:31.615Z,-3.43
2023-01-19T06:14:58.818Z,-3.39
2023-01-19T06:17:33.809Z,-3.48
2023-01-19T06:20:05.222Z,-3.52
2023-01-19T06:22:33.619Z,-3.53
2023-01-19T06:25:13.170Z,-3.53
2023-01-19T06:27:49.472Z,-3.47
2023-01-19T06:30:19.476Z,-3.43
2023-01-19T06:32:48.736Z,-3.48
2023-01-19T06:35:30.328Z,-3.41
2023-01-19T06:37:57.554Z,-3.48
2023-01-19T06:40:24.501Z,-3.61
2023-01-19T06:42:56.925Z,-3.51
2023-01-19T06:45:24.619Z,-3.49
2023-01-19T06:47:52.836Z,-3.53
2023-01-19T06:50:22.480Z,-3.57
2023-01-19T06:52:53.133Z,-3.50
2023-01-19T06:55:20.077Z,-3.55
2023-01-19T06:57:58.737Z,-3.49
2023-01-19T07:00:29.311Z,-3.42
2023-01-19T07:02:57.682Z,-3.50
2023-01-19T07:05:25.044Z,-3.55
2023-01-19T07:07:56.255Z,-3.47
2023-01-19T07:10:24.689Z,-3.47
2023-01-19T07:12:53.801Z,-3.50
2023-01-19T07:15:21.866Z,-3.50
2023-01-19T07:17:48.998Z,-3.48
2023-01-19T07:21:01.278Z,-3.44
2023-01-19T07:23:34.271Z,-3.44
2023-01-19T07:26:02.044Z,-3.45
2023-01-19T07:28:32.929Z,-3.39
2023-01-19T07:31:01.693Z,-3.41
2023-01-19T07:33:29.230Z,-3.47
2023-01-19T07:35:58.349Z,-3.37
2023-01-19T07:38:31.001Z,-3.36
2023-01-19T07:41:03.704Z,-3.30
2023-01-19T07:43:31.311Z,-3.30
2023-01-19T07:46:02.501Z,-3.28
2023-01-19T07:48:29.588Z,-3.28
2023-01-19T07:53:42.205Z,-3.28
2023-01-19T07:56:10.327Z,-3.29
2023-01-19T07:58:37.760Z,-3.24
2023-01-19T08:01:09.850Z,-3.24
2023-01-19T08:03:44.498Z,-3.22
2023-01-19T08:06:24.680Z,-3.28
2023-01-19T08:08:54.801Z,-3.35
2023-01-19T08:11:26.382Z,-3.30
2023-01-19T08:13:59.452Z,-3.25
2023-01-19T08:16:38.460Z,-3.23
2023-01-19T08:19:28.721Z,-3.06
2023-01-19T08:22:01.385Z,-2.97
2023-01-19T08:24:29.371Z,-2.74
2023-01-19T08:29:36.809Z,-2.41
2023-01-19T08:32:08.674Z,-2.37
2023-01-19T08:34:41.216Z,-2.29
2023-01-19T08:44:36.580Z,-2.02
2023-01-19T08:47:03.796Z,-1.95
2023-01-19T08:49:34.080Z,-1.78
2023-01-19T08:52:09.052Z,-1.72
2023-01-19T08:54:39.805Z,-1.66
2023-01-19T08:59:33.869Z,-1.45
2023-01-19T09:02:01.015Z,-1.37
2023-01-19T09:04:30.157Z,-1.29
2023-01-19T09:07:01.400Z,-1.16
2023-01-19T09:09:29.294Z,-1.12
2023-01-19T09:14:28.655Z,-1.09
2023-01-19T09:16:59.215Z,-1.09
2023-01-19T09:19:26.286Z,-1.03
2023-01-19T09:24:34.915Z,-1.13
2023-01-19T09:29:44.031Z,-1.17
2023-01-19T09:34:42.217Z,-1.03
2023-01-19T09:39:43.582Z,-0.78
2023-01-19T09:42:29.969Z,-0.53
2023-01-19T09:45:05.088Z,-0.35
2023-01-19T09:47:50.916Z,-0.28
2023-01-19T09:51:09.596Z,-0.12
2023-01-19T09:56:20.886Z,0.09
2023-01-19T09:58:51.363Z,0.17
2023-01-19T10:01:27.212Z,0.27
2023-01-19T10:04:24.110Z,0.36
2023-01-19T10:07:09.317Z,0.48
2023-01-19T10:10:01.316Z,0.58
2023-01-19T10:12:46.714Z,0.56
2023-01-19T10:15:46.862Z,0.59
2023-01-19T10:21:31.661Z,0.69
2023-01-19T10:24:28.037Z,0.58
2023-01-19T10:29:37.980Z,0.58
2023-01-19T10:32:22.228Z,0.59
2023-01-19T10:34:52.615Z,0.57
2023-01-19T10:37:42.413Z,0.59
2023-01-19T10:40:30.907Z,0.57
2023-01-19T10:43:03.317Z,0.55
2023-01-19T10:45:36.602Z,0.54
2023-01-19T10:48:16.091Z,0.55
2023-01-19T10:50:45.810Z,0.59
2023-01-19T10:53:25.829Z,0.63
2023-01-19T10:58:44.487Z,0.54
2023-01-19T11:01:28.895Z,0.59
2023-01-19T11:04:11.469Z,0.51
2023-01-19T11:06:41.606Z,0.37
2023-01-19T11:09:20.159Z,0.43
2023-01-19T11:11:53.800Z,0.52
2023-01-19T11:14:33.480Z,0.51
2023-01-19T11:17:00.717Z,0.50
2023-01-19T11:19:33.896Z,0.56
2023-01-19T11:22:25.973Z,0.75
2023-01-19T11:24:55.473Z,0.94
2023-01-19T11:27:35.614Z,1.07
2023-01-19T11:30:21.796Z,1.16
2023-01-19T11:35:40.735Z,1.22
2023-01-19T11:38:23.512Z,1.25
2023-01-19T11:40:56.677Z,1.32
2023-01-19T11:43:48.259Z,1.39
2023-01-19T11:46:20.080Z,1.39
2023-01-19T11:48:57.426Z,1.43
2023-01-19T11:51:40.214Z,1.42
2023-01-19T11:54:20.114Z,1.44
2023-01-19T11:56:49.233Z,1.42
2023-01-19T11:59:19.338Z,1.43
2023-01-19T12:01:59.703Z,1.39
2023-01-19T12:04:37.301Z,1.30
2023-01-19T12:09:47.434Z,1.21
2023-01-19T12:12:43.603Z,1.19
2023-01-19T12:15:22.893Z,1.15
2023-01-19T12:17:52.297Z,1.15
2023-01-19T12:20:43.199Z,1.15
2023-01-19T12:26:01.551Z,1.09
2023-01-19T12:31:04.083Z,1.14
2023-01-19T12:33:49.395Z,1.11
2023-01-19T12:36:38.147Z,1.05
2023-01-19T12:39:29.386Z,1.04
2023-01-19T12:42:16.919Z,1.00
2023-01-19T12:44:46.927Z,1.09
2023-01-19T12:47:15.597Z,1.23
2023-01-19T12:49:46.127Z,1.10
2023-01-19T12:53:01.681Z,1.11
2023-01-19T12:55:39.207Z,1.25
2023-01-19T12:58:29.618Z,1.41
2023-01-19T13:01:19.131Z,1.58
2023-01-19T13:04:01.572Z,1.57
2023-01-19T13:06:47.932Z,1.71
2023-01-19T13:09:33.836Z,1.86
2023-01-19T13:12:15.706Z,2.02
2023-01-19T13:14:45.240Z,2.02
2023-01-19T13:17:36.359Z,1.88
2023-01-19T13:20:23.057Z,1.84
2023-01-19T13:23:17.795Z,1.78
2023-01-19T13:28:30.855Z,1.89
2023-01-19T13:31:07.341Z,1.92
2023-01-19T13:33:50.064Z,2.15
2023-01-19T13:36:42.094Z,2.12
2023-01-19T13:39:27.056Z,1.98
2023-01-19T13:42:04.820Z,1.90
2023-01-19T13:44:53.985Z,1.83
2023-01-19T13:47:54.599Z,1.86
2023-01-19T13:50:32.420Z,1.86
2023-01-19T13:52:59.372Z,1.76
2023-01-19T13:55:31.105Z,1.81
2023-01-19T13:58:01.592Z,1.80
2023-01-19T14:00:31.451Z,1.64
2023-01-19T14:05:46.849Z,1.75
2023-01-19T14:08:15.395Z,1.83
2023-01-19T14:11:02.451Z,1.90
2023-01-19T14:16:07.881Z,1.70
2023-01-19T14:18:36.610Z,1.73
2023-01-19T14:23:51.598Z,1.54
2023-01-19T14:26:43.738Z,1.51
2023-01-19T14:32:03.482Z,1.48
2023-01-19T14:37:38.222Z,1.64
2023-01-19T14:42:39.563Z,1.70
2023-01-19T14:45:16.974Z,1.65
2023-01-19T14:47:48.457Z,1.65
2023-01-19T14:50:31.027Z,1.65
2023-01-19T14:55:52.614Z,1.49
2023-01-19T14:58:25.432Z,1.47
2023-01-19T15:01:02.782Z,1.38
2023-01-19T15:03:44.030Z,1.30
2023-01-19T15:06:20.150Z,1.31
2023-01-19T15:08:53.165Z,1.30
2023-01-19T15:11:35.303Z,1.20
2023-01-19T15:14:05.249Z,1.16
2023-01-19T15:16:34.362Z,1.17
2023-01-19T15:21:35.850Z,1.06
2023-01-19T15:24:05.303Z,1.01
2023-01-19T15:26:41.215Z,0.96
2023-01-19T15:29:27.113Z,0.86
2023-01-19T15:32:04.086Z,0.81
2023-01-19T15:34:47.237Z,0.77
2023-01-19T15:37:14.227Z,0.76
2023-01-19T15:39:46.960Z,0.73
2023-01-19T15:42:16.615Z,0.70
2023-01-19T15:44:46.023Z,0.67
2023-01-19T15:47:35.678Z,0.62
2023-01-19T15:50:02.823Z,0.58
2023-01-19T15:52:37.886Z,0.57
2023-01-19T15:57:46.502Z,0.59
2023-01-19T16:00:16.854Z,0.64
2023-01-19T16:03:03.203Z,0.65
2023-01-19T16:05:42.925Z,0.68
2023-01-19T16:08:17.726Z,0.70
2023-01-19T16:10:49.309Z,0.73
2023-01-19T16:13:20.457Z,0.76
2023-01-19T16:15:51.050Z,0.85
2023-01-19T16:18:24.980Z,0.87
2023-01-19T16:20:54.455Z,0.88
2023-01-19T16:23:29.494Z,0.93
2023-01-19T16:26:07.615Z,0.95
2023-01-19T16:28:49.314Z,0.93
2023-01-19T16:31:20.471Z,0.98
2023-01-19T16:33:50.631Z,0.98
2023-01-19T16:36:33.353Z,1.00
2023-01-19T16:39:04.818Z,1.00
2023-01-19T16:41:37.064Z,0.99
2023-01-19T16:46:36.836Z,0.99
2023-01-19T16:49:28.563Z,1.00
2023-01-19T16:51:58.602Z,1.01
2023-01-19T16:54:27.107Z,1.00
2023-01-19T17:02:37.429Z,0.98
2023-01-19T17:05:05.143Z,1.00
2023-01-19T17:10:01.585Z,1.02
2023-01-19T17:12:35.861Z,1.00
2023-01-19T17:15:23.738Z,1.03
2023-01-19T17:17:50.906Z,1.00
2023-01-19T17:20:40.423Z,1.00
2023-01-19T17:25:55.936Z,1.03
2023-01-19T17:28:36.647Z,1.02
2023-01-19T17:33:40.727Z,0.95
2023-01-19T17:38:37.853Z,0.90
2023-01-19T17:41:25.814Z,0.94
2023-01-19T17:44:16.113Z,0.91
2023-01-19T17:47:00.385Z,0.89
2023-01-19T17:49:32.428Z,0.86
2023-01-19T17:52:01.934Z,0.87
2023-01-19T17:54:31.324Z,0.89
2023-01-19T17:56:58.561Z,0.87
2023-01-19T17:59:30.302Z,0.89
2023-01-19T18:02:14.004Z,0.87
2023-01-19T18:04:46.717Z,0.85
2023-01-19T18:07:28.874Z,0.83
2023-01-19T18:10:01.458Z,0.89
2023-01-19T18:12:31.554Z,0.91
2023-01-19T18:15:05.895Z,0.91
2023-01-19T18:18:18.799Z,0.94
2023-01-19T18:21:25.672Z,0.95
2023-01-19T18:24:02.391Z,0.97
2023-01-19T18:26:30.828Z,0.95
2023-01-19T18:29:06.095Z,0.96
2023-01-19T18:31:36.839Z,0.96
2023-01-19T18:34:04.052Z,0.98
2023-01-19T18:36:42.464Z,0.97
2023-01-19T18:39:16.600Z,0.77
2023-01-19T18:41:43.931Z,0.85
2023-01-19T18:44:15.490Z,0.93
2023-01-19T18:46:43.323Z,0.93
2023-01-19T18:51:48.467Z,0.94
2023-01-19T18:54:18.337Z,0.95
2023-01-19T18:56:45.581Z,0.92
2023-01-19T18:59:24.808Z,0.93
2023-01-19T19:01:54.497Z,0.93
2023-01-19T19:04:22.072Z,0.92
2023-01-19T19:06:49.880Z,0.95
2023-01-19T19:09:29.645Z,0.93
2023-01-19T19:12:00.385Z,0.92
2023-01-19T19:14:29.381Z,0.90
2023-01-19T19:16:59.067Z,0.89
2023-01-19T19:19:26.121Z,0.88
2023-01-19T19:24:26.046Z,0.87
2023-01-19T19:29:22.207Z,0.92
2023-01-19T19:31:54.421Z,0.91
2023-01-19T19:34:21.401Z,0.89
2023-01-19T19:36:49.655Z,0.86
2023-01-19T19:39:39.495Z,0.89
2023-01-19T19:44:35.952Z,0.89
2023-01-19T19:47:05.718Z,0.90
2023-01-19T19:49:35.838Z,0.91
2023-01-19T19:52:05.111Z,0.87
2023-01-19T19:54:32.092Z,0.91
2023-01-19T19:56:58.904Z,0.93
2023-01-19T19:59:28.584Z,0.90
2023-01-19T20:01:55.604Z,0.87
2023-01-19T20:04:25.662Z,0.87
2023-01-19T20:06:57.864Z,0.85
2023-01-19T20:09:30.258Z,0.86
2023-01-19T20:11:57.367Z,0.84
2023-01-19T20:14:32.382Z,0.80
2023-01-19T20:17:06.758Z,0.85
2023-01-19T20:19:36.880Z,0.84
2023-01-19T20:22:03.889Z,0.87
2023-01-19T20:24:31.945Z,0.87
2023-01-19T20:27:02.257Z,0.87
2023-01-19T20:29:29.780Z,0.86
2023-01-19T20:31:56.922Z,0.83
2023-01-19T20:34:33.036Z,0.82
2023-01-19T20:37:01.891Z,0.81
2023-01-19T20:39:34.220Z,0.84
2023-01-19T20:42:01.634Z,0.86
2023-01-19T20:44:30.442Z,0.84
2023-01-19T20:46:59.278Z,0.89
2023-01-19T20:49:26.334Z,0.88
2023-01-19T20:51:55.676Z,0.88
2023-01-19T20:54:31.005Z,0.88
2023-01-19T20:56:58.031Z,0.86
2023-01-19T20:59:25.042Z,0.84
2023-01-19T21:01:53.628Z,0.85
2023-01-19T21:04:28.385Z,0.84
2023-01-19T21:07:00.068Z,0.89
2023-01-19T21:09:31.962Z,0.89
2023-01-19T21:12:01.942Z,0.87
2023-01-19T21:14:29.078Z,0.87
2023-01-19T21:16:58.530Z,0.87
2023-01-19T21:19:28.221Z,0.85
2023-01-19T21:21:55.860Z,0.86
2023-01-19T21:24:22.838Z,0.85
2023-01-19T21:26:52.808Z,0.85
2023-01-19T21:29:19.643Z,0.78
2023-01-19T21:31:54.171Z,0.81
2023-01-19T21:34:21.268Z,0.85
2023-01-19T21:36:53.494Z,0.84
2023-01-19T21:39:20.611Z,0.86
2023-01-19T21:41:50.685Z,0.85
2023-01-19T21:46:47.193Z,0.86
2023-01-19T21:49:31.662Z,0.81
2023-01-19T21:52:01.348Z,0.83
2023-01-19T21:54:32.495Z,0.85
2023-01-19T21:57:02.942Z,0.86
2023-01-19T21:59:31.995Z,0.85
2023-01-19T22:01:59.499Z,0.85
2023-01-19T22:04:26.513Z,0.81
2023-01-19T22:06:55.943Z,0.87
2023-01-19T22:09:22.797Z,0.86
2023-01-19T22:11:49.650Z,0.87
2023-01-19T22:14:19.010Z,0.89
2023-01-19T22:16:45.841Z,0.86
2023-01-19T22:19:18.503Z,0.90
2023-01-19T22:21:45.268Z,0.90
2023-01-19T22:24:12.931Z,0.91
2023-01-19T22:26:42.220Z,0.89
2023-01-19T22:29:11.377Z,0.86
2023-01-19T22:31:39.423Z,0.86
2023-01-19T22:36:39.584Z,0.93
2023-01-19T22:39:09.253Z,0.95
2023-01-19T22:41:44.163Z,0.98
2023-01-19T22:44:21.019Z,0.94
2023-01-19T22:47:00.714Z,0.94
2023-01-19T22:49:27.841Z,0.92
2023-01-19T22:51:56.206Z,0.87
2023-01-19T22:54:23.379Z,0.90
2023-01-19T22:56:50.216Z,0.88
2023-01-19T22:59:17.068Z,0.89
2023-01-19T23:01:44.625Z,0.89
2023-01-19T23:04:15.879Z,0.90
2023-01-19T23:06:43.436Z,0.88
2023-01-19T23:09:12.662Z,0.87
2023-01-19T23:11:44.606Z,0.84
2023-01-19T23:14:15.096Z,0.87
2023-01-19T23:16:42.307Z,0.83
2023-01-19T23:19:14.187Z,0.81
2023-01-19T23:21:41.744Z,0.79
2023-01-19T23:24:29.669Z,0.79
2023-01-19T23:27:02.437Z,0.79
2023-01-19T23:29:29.204Z,0.76
2023-01-19T23:31:56.991Z,0.76
2023-01-19T23:34:23.921Z,0.80
2023-01-19T23:36:50.747Z,0.79
2023-01-19T23:41:51.179Z,0.79
2023-01-19T23:44:20.928Z,0.82
2023-01-19T23:46:48.851Z,0.84
2023-01-19T23:49:18.060Z,0.82
2023-01-19T23:51:45.058Z,0.82
2023-01-19T23:56:39.758Z,0.79
